sensor_id;sensor_type;location;lat;lon;timestamp;temperature;humidity
71206;SHT31;58935;54.498;18.544;2023-06-19T00:02:08;16.69;78.20
71206;SHT31;58935;54.498;18.544;2023-06-19T00:04:33;16.64;78.22
71206;SHT31;58935;54.498;18.544;2023-06-19T00:07:03;16.59;78.44
71206;SHT31;58935;54.498;18.544;2023-06-19T00:09:29;16.55;78.54
71206;SHT31;58935;54.498;18.544;2023-06-19T00:11:54;16.53;78.68
71206;SHT31;58935;54.498;18.544;2023-06-19T00:14:19;16.52;78.70
71206;SHT31;58935;54.498;18.544;2023-06-19T00:16:47;16.50;78.86
71206;SHT31;58935;54.498;18.544;2023-06-19T00:19:12;16.50;78.92
71206;SHT31;58935;54.498;18.544;2023-06-19T00:21:38;16.48;79.01
71206;SHT31;58935;54.498;18.544;2023-06-19T00:24:07;16.49;79.07
71206;SHT31;58935;54.498;18.544;2023-06-19T00:26:36;16.46;79.00
71206;SHT31;58935;54.498;18.544;2023-06-19T00:29:08;16.42;79.07
71206;SHT31;58935;54.498;18.544;2023-06-19T00:31:36;16.37;79.29
71206;SHT31;58935;54.498;18.544;2023-06-19T00:34:02;16.34;79.41
71206;SHT31;58935;54.498;18.544;2023-06-19T00:36:27;16.31;79.37
71206;SHT31;58935;54.498;18.544;2023-06-19T00:38:55;16.27;79.48
71206;SHT31;58935;54.498;18.544;2023-06-19T00:41:21;16.24;79.60
71206;SHT31;58935;54.498;18.544;2023-06-19T00:43:47;16.23;79.55
71206;SHT31;58935;54.498;18.544;2023-06-19T00:46:13;16.18;79.62
71206;SHT31;58935;54.498;18.544;2023-06-19T00:48:38;16.15;79.76
71206;SHT31;58935;54.498;18.544;2023-06-19T00:51:04;16.12;79.81
71206;SHT31;58935;54.498;18.544;2023-06-19T00:53:30;16.06;79.87
71206;SHT31;58935;54.498;18.544;2023-06-19T00:55:59;16.02;79.97
71206;SHT31;58935;54.498;18.544;2023-06-19T00:58:30;15.99;80.18
71206;SHT31;58935;54.498;18.544;2023-06-19T01:00:58;15.99;80.27
71206;SHT31;58935;54.498;18.544;2023-06-19T01:03:23;15.97;80.33
71206;SHT31;58935;54.498;18.544;2023-06-19T01:05:51;15.95;80.43
71206;SHT31;58935;54.498;18.544;2023-06-19T01:08:28;15.94;80.62
71206;SHT31;58935;54.498;18.544;2023-06-19T01:11:23;15.92;80.56
71206;SHT31;58935;54.498;18.544;2023-06-19T01:16:31;15.87;80.37
71206;SHT31;58935;54.498;18.544;2023-06-19T01:18:58;15.84;80.48
71206;SHT31;58935;54.498;18.544;2023-06-19T01:21:24;15.81;80.47
71206;SHT31;58935;54.498;18.544;2023-06-19T01:23:50;15.77;80.36
71206;SHT31;58935;54.498;18.544;2023-06-19T01:26:16;15.74;80.46
71206;SHT31;58935;54.498;18.544;2023-06-19T01:28:43;15.72;80.57
71206;SHT31;58935;54.498;18.544;2023-06-19T01:33:50;15.70;80.61
71206;SHT31;58935;54.498;18.544;2023-06-19T01:36:18;15.69;80.69
71206;SHT31;58935;54.498;18.544;2023-06-19T01:38:49;15.68;80.66
71206;SHT31;58935;54.498;18.544;2023-06-19T01:41:16;15.66;80.89
71206;SHT31;58935;54.498;18.544;2023-06-19T01:43:44;15.64;80.84
71206;SHT31;58935;54.498;18.544;2023-06-19T01:46:11;15.62;80.88
71206;SHT31;58935;54.498;18.544;2023-06-19T01:48:37;15.62;80.88
71206;SHT31;58935;54.498;18.544;2023-06-19T01:51:04;15.60;80.80
71206;SHT31;58935;54.498;18.544;2023-06-19T01:53:30;15.57;80.70
71206;SHT31;58935;54.498;18.544;2023-06-19T01:55:57;15.54;80.70
71206;SHT31;58935;54.498;18.544;2023-06-19T01:58:23;15.49;80.74
71206;SHT31;58935;54.498;18.544;2023-06-19T02:00:51;15.47;80.84
71206;SHT31;58935;54.498;18.544;2023-06-19T02:03:16;15.45;81.05
71206;SHT31;58935;54.498;18.544;2023-06-19T02:05:44;15.46;81.20
71206;SHT31;58935;54.498;18.544;2023-06-19T02:08:12;15.48;81.28
71206;SHT31;58935;54.498;18.544;2023-06-19T02:10:40;15.50;81.39
71206;SHT31;58935;54.498;18.544;2023-06-19T02:13:05;15.49;81.34
71206;SHT31;58935;54.498;18.544;2023-06-19T02:15:30;15.50;81.48
71206;SHT31;58935;54.498;18.544;2023-06-19T02:17:59;15.51;81.52
71206;SHT31;58935;54.498;18.544;2023-06-19T02:20:25;15.53;81.47
71206;SHT31;58935;54.498;18.544;2023-06-19T02:22:50;15.53;81.42
71206;SHT31;58935;54.498;18.544;2023-06-19T02:25:17;15.53;81.37
71206;SHT31;58935;54.498;18.544;2023-06-19T02:27:42;15.53;81.28
71206;SHT31;58935;54.498;18.544;2023-06-19T02:30:10;15.53;81.20
71206;SHT31;58935;54.498;18.544;2023-06-19T02:32:36;15.50;81.20
71206;SHT31;58935;54.498;18.544;2023-06-19T02:35:02;15.48;81.23
71206;SHT31;58935;54.498;18.544;2023-06-19T02:37:34;15.46;81.36
71206;SHT31;58935;54.498;18.544;2023-06-19T02:40:01;15.47;81.41
71206;SHT31;58935;54.498;18.544;2023-06-19T02:42:30;15.47;81.47
71206;SHT31;58935;54.498;18.544;2023-06-19T02:44:58;15.49;81.50
71206;SHT31;58935;54.498;18.544;2023-06-19T02:47:28;15.50;81.41
71206;SHT31;58935;54.498;18.544;2023-06-19T02:49:56;15.51;81.42
71206;SHT31;58935;54.498;18.544;2023-06-19T02:52:24;15.52;81.58
71206;SHT31;58935;54.498;18.544;2023-06-19T02:54:50;15.54;81.64
71206;SHT31;58935;54.498;18.544;2023-06-19T02:57:18;15.58;81.70
71206;SHT31;58935;54.498;18.544;2023-06-19T02:59:43;15.60;81.74
71206;SHT31;58935;54.498;18.544;2023-06-19T03:02:10;15.63;81.82
71206;SHT31;58935;54.498;18.544;2023-06-19T03:04:38;15.66;81.73
71206;SHT31;58935;54.498;18.544;2023-06-19T03:07:05;15.70;81.79
71206;SHT31;58935;54.498;18.544;2023-06-19T03:09:31;15.74;81.80
71206;SHT31;58935;54.498;18.544;2023-06-19T03:11:56;15.84;81.74
71206;SHT31;58935;54.498;18.544;2023-06-19T03:14:21;15.97;81.52
71206;SHT31;58935;54.498;18.544;2023-06-19T03:16:47;16.56;81.00
71206;SHT31;58935;54.498;18.544;2023-06-19T03:19:13;17.25;79.62
71206;SHT31;58935;54.498;18.544;2023-06-19T03:21:38;17.56;79.13
71206;SHT31;58935;54.498;18.544;2023-06-19T03:24:03;17.72;78.91
71206;SHT31;58935;54.498;18.544;2023-06-19T03:26:29;17.83;78.64
71206;SHT31;58935;54.498;18.544;2023-06-19T03:28:57;17.90;78.22
71206;SHT31;58935;54.498;18.544;2023-06-19T03:31:22;17.98;77.87
71206;SHT31;58935;54.498;18.544;2023-06-19T03:33:50;18.04;77.23
71206;SHT31;58935;54.498;18.544;2023-06-19T03:36:15;18.06;76.89
71206;SHT31;58935;54.498;18.544;2023-06-19T03:38:41;18.06;76.61
71206;SHT31;58935;54.498;18.544;2023-06-19T03:41:06;18.04;76.46
71206;SHT31;58935;54.498;18.544;2023-06-19T03:43:31;18.01;76.33
71206;SHT31;58935;54.498;18.544;2023-06-19T03:45:56;17.99;76.57
71206;SHT31;58935;54.498;18.544;2023-06-19T03:48:22;18.00;76.40
71206;SHT31;58935;54.498;18.544;2023-06-19T03:50:47;17.98;76.21
71206;SHT31;58935;54.498;18.544;2023-06-19T03:53:12;17.95;76.20
71206;SHT31;58935;54.498;18.544;2023-06-19T03:55:39;17.92;76.35
71206;SHT31;58935;54.498;18.544;2023-06-19T03:58:04;17.91;76.53
71206;SHT31;58935;54.498;18.544;2023-06-19T04:00:29;17.93;76.47
71206;SHT31;58935;54.498;18.544;2023-06-19T04:02:55;17.93;76.40
71206;SHT31;58935;54.498;18.544;2023-06-19T04:05:27;17.97;76.42
71206;SHT31;58935;54.498;18.544;2023-06-19T04:07:55;18.02;76.40
71206;SHT31;58935;54.498;18.544;2023-06-19T04:10:20;18.05;76.33
71206;SHT31;58935;54.498;18.544;2023-06-19T04:12:46;18.09;76.12
71206;SHT31;58935;54.498;18.544;2023-06-19T04:15:12;18.12;75.90
71206;SHT31;58935;54.498;18.544;2023-06-19T04:17:40;18.16;75.81
71206;SHT31;58935;54.498;18.544;2023-06-19T04:20:08;18.21;75.62
71206;SHT31;58935;54.498;18.544;2023-06-19T04:22:37;18.26;75.52
71206;SHT31;58935;54.498;18.544;2023-06-19T04:25:05;18.30;75.53
71206;SHT31;58935;54.498;18.544;2023-06-19T04:27:32;18.35;75.54
71206;SHT31;58935;54.498;18.544;2023-06-19T04:29:58;18.42;75.60
71206;SHT31;58935;54.498;18.544;2023-06-19T04:32:23;18.49;75.53
71206;SHT31;58935;54.498;18.544;2023-06-19T04:34:51;18.54;75.51
71206;SHT31;58935;54.498;18.544;2023-06-19T04:37:16;18.62;75.43
71206;SHT31;58935;54.498;18.544;2023-06-19T04:39:44;18.68;75.25
71206;SHT31;58935;54.498;18.544;2023-06-19T04:42:12;18.73;75.17
71206;SHT31;58935;54.498;18.544;2023-06-19T04:44:42;18.79;75.11
71206;SHT31;58935;54.498;18.544;2023-06-19T04:47:10;18.87;74.96
71206;SHT31;58935;54.498;18.544;2023-06-19T04:49:36;18.93;74.87
71206;SHT31;58935;54.498;18.544;2023-06-19T04:52:03;19.00;74.69
71206;SHT31;58935;54.498;18.544;2023-06-19T04:54:29;19.08;74.55
71206;SHT31;58935;54.498;18.544;2023-06-19T04:56:58;19.16;74.32
71206;SHT31;58935;54.498;18.544;2023-06-19T04:59:24;19.21;73.98
71206;SHT31;58935;54.498;18.544;2023-06-19T05:01:49;19.26;73.58
71206;SHT31;58935;54.498;18.544;2023-06-19T05:04:18;19.32;73.14
71206;SHT31;58935;54.498;18.544;2023-06-19T05:06:44;19.37;72.91
71206;SHT31;58935;54.498;18.544;2023-06-19T05:09:10;19.43;72.94
71206;SHT31;58935;54.498;18.544;2023-06-19T05:11:36;19.50;72.81
71206;SHT31;58935;54.498;18.544;2023-06-19T05:14:02;19.57;72.62
71206;SHT31;58935;54.498;18.544;2023-06-19T05:16:28;19.62;72.33
71206;SHT31;58935;54.498;18.544;2023-06-19T05:18:53;19.67;72.08
71206;SHT31;58935;54.498;18.544;2023-06-19T05:21:18;19.73;71.81
71206;SHT31;58935;54.498;18.544;2023-06-19T05:23:44;19.80;71.81
71206;SHT31;58935;54.498;18.544;2023-06-19T05:26:12;19.88;71.67
71206;SHT31;58935;54.498;18.544;2023-06-19T05:28:38;19.95;71.60
71206;SHT31;58935;54.498;18.544;2023-06-19T05:31:05;20.01;71.56
71206;SHT31;58935;54.498;18.544;2023-06-19T05:33:30;20.09;71.47
71206;SHT31;58935;54.498;18.544;2023-06-19T05:35:56;20.16;71.09
71206;SHT31;58935;54.498;18.544;2023-06-19T05:38:21;20.23;70.71
71206;SHT31;58935;54.498;18.544;2023-06-19T05:40:48;20.29;70.45
71206;SHT31;58935;54.498;18.544;2023-06-19T05:43:15;20.33;70.50
71206;SHT31;58935;54.498;18.544;2023-06-19T05:45:41;20.39;70.38
71206;SHT31;58935;54.498;18.544;2023-06-19T05:48:06;20.47;70.26
71206;SHT31;58935;54.498;18.544;2023-06-19T05:50:34;20.53;70.03
71206;SHT31;58935;54.498;18.544;2023-06-19T05:52:59;20.59;69.78
71206;SHT31;58935;54.498;18.544;2023-06-19T05:55:24;20.65;69.46
71206;SHT31;58935;54.498;18.544;2023-06-19T05:57:50;20.68;69.32
71206;SHT31;58935;54.498;18.544;2023-06-19T06:00:16;20.73;68.93
71206;SHT31;58935;54.498;18.544;2023-06-19T06:02:42;20.77;68.92
71206;SHT31;58935;54.498;18.544;2023-06-19T06:05:10;20.84;69.04
71206;SHT31;58935;54.498;18.544;2023-06-19T06:07:35;20.92;68.97
71206;SHT31;58935;54.498;18.544;2023-06-19T06:10:01;21.00;69.40
71206;SHT31;58935;54.498;18.544;2023-06-19T06:12:27;21.07;69.67
71206;SHT31;58935;54.498;18.544;2023-06-19T06:14:54;21.15;69.36
71206;SHT31;58935;54.498;18.544;2023-06-19T06:17:19;21.21;68.89
71206;SHT31;58935;54.498;18.544;2023-06-19T06:19:45;21.28;68.35
71206;SHT31;58935;54.498;18.544;2023-06-19T06:22:10;21.33;67.68
71206;SHT31;58935;54.498;18.544;2023-06-19T06:24:35;21.39;67.18
71206;SHT31;58935;54.498;18.544;2023-06-19T06:27:01;21.45;67.20
71206;SHT31;58935;54.498;18.544;2023-06-19T06:29:26;21.50;67.66
71206;SHT31;58935;54.498;18.544;2023-06-19T06:32:02;21.50;67.66
71206;SHT31;58935;54.498;18.544;2023-06-19T06:37:27;21.44;67.53
71206;SHT31;58935;54.498;18.544;2023-06-19T06:39:52;21.49;68.03
71206;SHT31;58935;54.498;18.544;2023-06-19T06:42:18;21.53;67.47
71206;SHT31;58935;54.498;18.544;2023-06-19T06:44:46;21.54;67.53
71206;SHT31;58935;54.498;18.544;2023-06-19T06:47:11;21.56;67.69
71206;SHT31;58935;54.498;18.544;2023-06-19T06:49:39;21.57;67.71
71206;SHT31;58935;54.498;18.544;2023-06-19T06:52:07;21.57;67.53
71206;SHT31;58935;54.498;18.544;2023-06-19T06:54:33;21.58;66.81
71206;SHT31;58935;54.498;18.544;2023-06-19T06:56:58;21.56;67.26
71206;SHT31;58935;54.498;18.544;2023-06-19T06:59:25;21.57;67.32
71206;SHT31;58935;54.498;18.544;2023-06-19T07:01:52;21.55;67.01
71206;SHT31;58935;54.498;18.544;2023-06-19T07:04:20;21.54;67.68
71206;SHT31;58935;54.498;18.544;2023-06-19T07:06:48;21.57;68.01
71206;SHT31;58935;54.498;18.544;2023-06-19T07:09:14;21.58;68.03
71206;SHT31;58935;54.498;18.544;2023-06-19T07:11:40;21.56;67.52
71206;SHT31;58935;54.498;18.544;2023-06-19T07:14:05;21.52;67.86
71206;SHT31;58935;54.498;18.544;2023-06-19T07:16:31;21.47;67.44
71206;SHT31;58935;54.498;18.544;2023-06-19T07:18:56;21.42;66.76
71206;SHT31;58935;54.498;18.544;2023-06-19T07:21:22;21.34;66.82
71206;SHT31;58935;54.498;18.544;2023-06-19T07:23:47;21.35;66.90
71206;SHT31;58935;54.498;18.544;2023-06-19T07:26:13;21.36;66.65
71206;SHT31;58935;54.498;18.544;2023-06-19T07:28:41;21.43;67.10
71206;SHT31;58935;54.498;18.544;2023-06-19T07:31:07;21.50;66.76
71206;SHT31;58935;54.498;18.544;2023-06-19T07:33:33;21.52;66.74
71206;SHT31;58935;54.498;18.544;2023-06-19T07:35:58;21.60;67.22
71206;SHT31;58935;54.498;18.544;2023-06-19T07:38:24;21.73;66.39
71206;SHT31;58935;54.498;18.544;2023-06-19T07:40:50;21.72;66.02
71206;SHT31;58935;54.498;18.544;2023-06-19T07:43:15;21.75;66.13
71206;SHT31;58935;54.498;18.544;2023-06-19T07:45:42;21.82;65.71
71206;SHT31;58935;54.498;18.544;2023-06-19T07:48:08;21.93;66.10
71206;SHT31;58935;54.498;18.544;2023-06-19T07:50:33;22.00;66.00
71206;SHT31;58935;54.498;18.544;2023-06-19T07:52:58;22.01;66.33
71206;SHT31;58935;54.498;18.544;2023-06-19T07:55:24;22.10;66.57
71206;SHT31;58935;54.498;18.544;2023-06-19T07:57:51;22.25;66.21
71206;SHT31;58935;54.498;18.544;2023-06-19T08:00:17;22.35;64.44
71206;SHT31;58935;54.498;18.544;2023-06-19T08:02:43;22.35;63.57
71206;SHT31;58935;54.498;18.544;2023-06-19T08:05:08;22.35;64.69
71206;SHT31;58935;54.498;18.544;2023-06-19T08:07:35;22.46;64.71
71206;SHT31;58935;54.498;18.544;2023-06-19T08:10:02;22.54;64.07
71206;SHT31;58935;54.498;18.544;2023-06-19T08:12:31;22.59;64.32
71206;SHT31;58935;54.498;18.544;2023-06-19T08:14:57;22.65;64.35
71206;SHT31;58935;54.498;18.544;2023-06-19T08:17:23;22.72;64.15
71206;SHT31;58935;54.498;18.544;2023-06-19T08:19:49;22.79;63.79
71206;SHT31;58935;54.498;18.544;2023-06-19T08:22:15;22.84;63.34
71206;SHT31;58935;54.498;18.544;2023-06-19T08:24:40;22.87;64.02
71206;SHT31;58935;54.498;18.544;2023-06-19T08:27:06;22.96;64.12
71206;SHT31;58935;54.498;18.544;2023-06-19T08:29:32;22.95;64.13
71206;SHT31;58935;54.498;18.544;2023-06-19T08:31:58;22.91;64.05
71206;SHT31;58935;54.498;18.544;2023-06-19T08:34:24;22.89;63.68
71206;SHT31;58935;54.498;18.544;2023-06-19T08:36:49;22.85;63.66
71206;SHT31;58935;54.498;18.544;2023-06-19T08:39:14;22.81;63.95
71206;SHT31;58935;54.498;18.544;2023-06-19T08:41:42;22.82;63.88
71206;SHT31;58935;54.498;18.544;2023-06-19T08:44:10;22.88;63.71
71206;SHT31;58935;54.498;18.544;2023-06-19T08:46:35;22.93;63.39
71206;SHT31;58935;54.498;18.544;2023-06-19T08:49:02;22.99;63.57
71206;SHT31;58935;54.498;18.544;2023-06-19T08:51:33;22.97;63.74
71206;SHT31;58935;54.498;18.544;2023-06-19T08:54:01;22.92;64.24
71206;SHT31;58935;54.498;18.544;2023-06-19T08:56:31;22.85;63.23
71206;SHT31;58935;54.498;18.544;2023-06-19T09:01:36;22.84;63.95
71206;SHT31;58935;54.498;18.544;2023-06-19T09:06:36;22.90;64.11
71206;SHT31;58935;54.498;18.544;2023-06-19T09:09:12;22.93;63.95
71206;SHT31;58935;54.498;18.544;2023-06-19T09:14:23;22.95;63.54
71206;SHT31;58935;54.498;18.544;2023-06-19T09:17:11;22.88;63.83
71206;SHT31;58935;54.498;18.544;2023-06-19T09:19:47;22.85;63.97
71206;SHT31;58935;54.498;18.544;2023-06-19T09:22:18;22.80;64.00
71206;SHT31;58935;54.498;18.544;2023-06-19T09:24:47;22.72;64.81
71206;SHT31;58935;54.498;18.544;2023-06-19T09:27:16;22.55;65.41
71206;SHT31;58935;54.498;18.544;2023-06-19T09:29:45;22.38;66.07
71206;SHT31;58935;54.498;18.544;2023-06-19T09:32:18;22.29;66.47
71206;SHT31;58935;54.498;18.544;2023-06-19T09:34:46;22.28;66.50
71206;SHT31;58935;54.498;18.544;2023-06-19T09:37:21;22.27;66.26
71206;SHT31;58935;54.498;18.544;2023-06-19T09:39:53;22.26;66.46
71206;SHT31;58935;54.498;18.544;2023-06-19T09:45:00;22.27;65.71
71206;SHT31;58935;54.498;18.544;2023-06-19T09:47:32;22.23;65.07
71206;SHT31;58935;54.498;18.544;2023-06-19T09:50:04;22.17;66.81
71206;SHT31;58935;54.498;18.544;2023-06-19T09:52:32;22.11;67.48
71206;SHT31;58935;54.498;18.544;2023-06-19T09:54:59;22.07;67.16
71206;SHT31;58935;54.498;18.544;2023-06-19T09:57:29;22.01;67.53
71206;SHT31;58935;54.498;18.544;2023-06-19T09:59:55;22.02;67.99
71206;SHT31;58935;54.498;18.544;2023-06-19T10:02:25;22.07;68.18
71206;SHT31;58935;54.498;18.544;2023-06-19T10:04:53;22.12;67.68
71206;SHT31;58935;54.498;18.544;2023-06-19T10:07:23;22.15;67.03
71206;SHT31;58935;54.498;18.544;2023-06-19T10:09:55;22.20;65.66
71206;SHT31;58935;54.498;18.544;2023-06-19T10:17:43;22.42;65.40
71206;SHT31;58935;54.498;18.544;2023-06-19T10:27:47;22.83;63.04
71206;SHT31;58935;54.498;18.544;2023-06-19T10:32:44;22.78;65.41
71206;SHT31;58935;54.498;18.544;2023-06-19T10:35:10;22.82;64.82
71206;SHT31;58935;54.498;18.544;2023-06-19T10:37:40;22.78;65.90
71206;SHT31;58935;54.498;18.544;2023-06-19T10:40:05;22.75;66.39
71206;SHT31;58935;54.498;18.544;2023-06-19T10:42:34;22.78;66.61
71206;SHT31;58935;54.498;18.544;2023-06-19T10:45:03;22.80;66.15
71206;SHT31;58935;54.498;18.544;2023-06-19T10:47:41;22.78;65.77
71206;SHT31;58935;54.498;18.544;2023-06-19T10:50:10;22.77;65.12
71206;SHT31;58935;54.498;18.544;2023-06-19T10:52:41;22.80;65.43
71206;SHT31;58935;54.498;18.544;2023-06-19T10:55:09;22.80;65.88
71206;SHT31;58935;54.498;18.544;2023-06-19T10:57:43;22.75;66.58
71206;SHT31;58935;54.498;18.544;2023-06-19T11:00:10;22.68;66.47
71206;SHT31;58935;54.498;18.544;2023-06-19T11:02:57;22.69;66.01
71206;SHT31;58935;54.498;18.544;2023-06-19T11:05:24;22.73;65.10
71206;SHT31;58935;54.498;18.544;2023-06-19T11:07:54;22.76;65.37
71206;SHT31;58935;54.498;18.544;2023-06-19T11:10:23;22.79;66.04
71206;SHT31;58935;54.498;18.544;2023-06-19T11:12:54;22.80;66.25
71206;SHT31;58935;54.498;18.544;2023-06-19T11:17:55;22.78;66.39
71206;SHT31;58935;54.498;18.544;2023-06-19T11:20:21;22.76;66.55
71206;SHT31;58935;54.498;18.544;2023-06-19T11:22:53;22.81;66.93
71206;SHT31;58935;54.498;18.544;2023-06-19T11:25:33;22.86;66.20
71206;SHT31;58935;54.498;18.544;2023-06-19T11:28:01;22.92;66.47
71206;SHT31;58935;54.498;18.544;2023-06-19T11:30:30;22.95;66.89
71206;SHT31;58935;54.498;18.544;2023-06-19T11:32:57;23.06;66.07
71206;SHT31;58935;54.498;18.544;2023-06-19T11:35:23;23.18;65.24
71206;SHT31;58935;54.498;18.544;2023-06-19T11:37:48;23.24;64.39
71206;SHT31;58935;54.498;18.544;2023-06-19T11:40:14;23.25;64.80
71206;SHT31;58935;54.498;18.544;2023-06-19T11:42:45;23.28;65.74
71206;SHT31;58935;54.498;18.544;2023-06-19T11:45:14;23.23;66.50
71206;SHT31;58935;54.498;18.544;2023-06-19T11:47:43;23.21;66.68
71206;SHT31;58935;54.498;18.544;2023-06-19T11:50:17;23.25;66.32
71206;SHT31;58935;54.498;18.544;2023-06-19T11:52:44;23.34;66.76
71206;SHT31;58935;54.498;18.544;2023-06-19T11:55:13;23.34;66.76
71206;SHT31;58935;54.498;18.544;2023-06-19T11:57:43;23.32;66.98
71206;SHT31;58935;54.498;18.544;2023-06-19T12:02:41;23.26;67.03
71206;SHT31;58935;54.498;18.544;2023-06-19T12:05:07;23.12;67.94
71206;SHT31;58935;54.498;18.544;2023-06-19T12:07:33;23.00;68.51
71206;SHT31;58935;54.498;18.544;2023-06-19T12:09:58;22.90;69.56
71206;SHT31;58935;54.498;18.544;2023-06-19T12:12:24;22.90;69.59
71206;SHT31;58935;54.498;18.544;2023-06-19T12:14:51;22.90;69.71
71206;SHT31;58935;54.498;18.544;2023-06-19T12:17:16;22.86;69.84
71206;SHT31;58935;54.498;18.544;2023-06-19T12:19:46;22.84;69.89
71206;SHT31;58935;54.498;18.544;2023-06-19T12:22:11;22.80;69.94
71206;SHT31;58935;54.498;18.544;2023-06-19T12:24:37;22.75;70.26
71206;SHT31;58935;54.498;18.544;2023-06-19T12:27:02;22.87;70.47
71206;SHT31;58935;54.498;18.544;2023-06-19T12:29:28;23.04;68.97
71206;SHT31;58935;54.498;18.544;2023-06-19T12:31:59;23.21;68.47
71206;SHT31;58935;54.498;18.544;2023-06-19T12:34:28;23.35;67.83
71206;SHT31;58935;54.498;18.544;2023-06-19T12:36:53;23.42;67.52
71206;SHT31;58935;54.498;18.544;2023-06-19T12:39:19;23.39;67.05
71206;SHT31;58935;54.498;18.544;2023-06-19T12:41:48;23.27;67.71
71206;SHT31;58935;54.498;18.544;2023-06-19T12:44:18;23.18;68.05
71206;SHT31;58935;54.498;18.544;2023-06-19T12:46:46;23.06;68.41
71206;SHT31;58935;54.498;18.544;2023-06-19T12:49:12;22.94;68.39
71206;SHT31;58935;54.498;18.544;2023-06-19T12:51:37;22.84;69.04
71206;SHT31;58935;54.498;18.544;2023-06-19T12:54:05;22.68;69.44
71206;SHT31;58935;54.498;18.544;2023-06-19T12:56:30;22.52;70.14
71206;SHT31;58935;54.498;18.544;2023-06-19T12:58:55;22.40;70.74
71206;SHT31;58935;54.498;18.544;2023-06-19T13:01:20;22.54;70.86
71206;SHT31;58935;54.498;18.544;2023-06-19T13:03:46;22.72;70.30
71206;SHT31;58935;54.498;18.544;2023-06-19T13:06:12;22.86;69.65
71206;SHT31;58935;54.498;18.544;2023-06-19T13:08:37;22.94;69.12
71206;SHT31;58935;54.498;18.544;2023-06-19T13:11:02;23.07;68.88
71206;SHT31;58935;54.498;18.544;2023-06-19T13:13:28;23.21;68.12
71206;SHT31;58935;54.498;18.544;2023-06-19T13:15:56;23.36;68.07
71206;SHT31;58935;54.498;18.544;2023-06-19T13:18:23;23.53;67.57
71206;SHT31;58935;54.498;18.544;2023-06-19T13:20:49;23.66;67.21
71206;SHT31;58935;54.498;18.544;2023-06-19T13:23:17;23.81;67.24
71206;SHT31;58935;54.498;18.544;2023-06-19T13:25:44;23.94;66.80
71206;SHT31;58935;54.498;18.544;2023-06-19T13:28:10;23.98;65.21
71206;SHT31;58935;54.498;18.544;2023-06-19T13:30:35;23.91;64.93
71206;SHT31;58935;54.498;18.544;2023-06-19T13:33:01;23.81;64.48
71206;SHT31;58935;54.498;18.544;2023-06-19T13:35:29;23.84;65.87
71206;SHT31;58935;54.498;18.544;2023-06-19T13:37:55;23.97;65.90
71206;SHT31;58935;54.498;18.544;2023-06-19T13:40:21;24.08;65.80
71206;SHT31;58935;54.498;18.544;2023-06-19T13:42:47;24.04;65.10
71206;SHT31;58935;54.498;18.544;2023-06-19T13:45:12;24.00;64.19
71206;SHT31;58935;54.498;18.544;2023-06-19T13:47:38;24.02;64.40
71206;SHT31;58935;54.498;18.544;2023-06-19T13:50:06;24.00;64.44
71206;SHT31;58935;54.498;18.544;2023-06-19T13:52:34;23.80;64.97
71206;SHT31;58935;54.498;18.544;2023-06-19T13:54:59;23.60;65.84
71206;SHT31;58935;54.498;18.544;2023-06-19T13:57:27;23.48;66.58
71206;SHT31;58935;54.498;18.544;2023-06-19T13:59:55;23.33;67.22
71206;SHT31;58935;54.498;18.544;2023-06-19T14:02:20;23.20;67.66
71206;SHT31;58935;54.498;18.544;2023-06-19T14:04:48;23.14;67.63
71206;SHT31;58935;54.498;18.544;2023-06-19T14:07:13;23.12;68.28
71206;SHT31;58935;54.498;18.544;2023-06-19T14:09:39;23.14;68.71
71206;SHT31;58935;54.498;18.544;2023-06-19T14:12:05;23.16;68.51
71206;SHT31;58935;54.498;18.544;2023-06-19T14:14:31;23.18;68.17
71206;SHT31;58935;54.498;18.544;2023-06-19T14:17:00;23.20;68.06
71206;SHT31;58935;54.498;18.544;2023-06-19T14:19:26;23.20;68.04
71206;SHT31;58935;54.498;18.544;2023-06-19T14:21:53;23.21;68.39
71206;SHT31;58935;54.498;18.544;2023-06-19T14:24:19;23.15;68.46
71206;SHT31;58935;54.498;18.544;2023-06-19T14:26:44;22.93;68.76
71206;SHT31;58935;54.498;18.544;2023-06-19T14:29:09;22.73;69.27
71206;SHT31;58935;54.498;18.544;2023-06-19T14:31:34;22.57;69.89
71206;SHT31;58935;54.498;18.544;2023-06-19T14:34:02;22.46;70.27
71206;SHT31;58935;54.498;18.544;2023-06-19T14:36:27;22.40;70.90
71206;SHT31;58935;54.498;18.544;2023-06-19T14:38:53;22.32;71.40
71206;SHT31;58935;54.498;18.544;2023-06-19T14:41:18;22.17;71.93
71206;SHT31;58935;54.498;18.544;2023-06-19T14:43:43;22.08;72.27
71206;SHT31;58935;54.498;18.544;2023-06-19T14:46:09;22.02;72.51
71206;SHT31;58935;54.498;18.544;2023-06-19T14:48:34;22.09;72.52
71206;SHT31;58935;54.498;18.544;2023-06-19T14:51:00;22.29;72.51
71206;SHT31;58935;54.498;18.544;2023-06-19T14:53:26;22.54;71.77
71206;SHT31;58935;54.498;18.544;2023-06-19T14:55:51;22.74;71.29
71206;SHT31;58935;54.498;18.544;2023-06-19T14:58:17;22.92;70.71
71206;SHT31;58935;54.498;18.544;2023-06-19T15:00:47;23.08;70.19
71206;SHT31;58935;54.498;18.544;2023-06-19T15:03:13;23.19;69.28
71206;SHT31;58935;54.498;18.544;2023-06-19T15:05:39;23.28;69.34
71206;SHT31;58935;54.498;18.544;2023-06-19T15:08:06;23.40;69.08
71206;SHT31;58935;54.498;18.544;2023-06-19T15:10:34;23.51;68.86
71206;SHT31;58935;54.498;18.544;2023-06-19T15:13:02;23.68;68.47
71206;SHT31;58935;54.498;18.544;2023-06-19T15:15:27;23.80;67.30
71206;SHT31;58935;54.498;18.544;2023-06-19T15:17:53;23.79;66.72
71206;SHT31;58935;54.498;18.544;2023-06-19T15:20:18;23.73;66.52
71206;SHT31;58935;54.498;18.544;2023-06-19T15:22:45;23.52;66.65
71206;SHT31;58935;54.498;18.544;2023-06-19T15:25:13;23.32;67.60
71206;SHT31;58935;54.498;18.544;2023-06-19T15:27:50;23.24;68.04
71206;SHT31;58935;54.498;18.544;2023-06-19T15:30:18;23.19;68.26
71206;SHT31;58935;54.498;18.544;2023-06-19T15:32:46;23.16;68.41
71206;SHT31;58935;54.498;18.544;2023-06-19T15:35:11;23.11;68.29
71206;SHT31;58935;54.498;18.544;2023-06-19T15:37:36;22.97;67.77
71206;SHT31;58935;54.498;18.544;2023-06-19T15:40:03;22.97;68.35
71206;SHT31;58935;54.498;18.544;2023-06-19T15:42:29;23.00;68.23
71206;SHT31;58935;54.498;18.544;2023-06-19T15:44:55;22.97;67.80
71206;SHT31;58935;54.498;18.544;2023-06-19T15:47:20;23.00;67.99
71206;SHT31;58935;54.498;18.544;2023-06-19T15:49:45;23.09;68.09
71206;SHT31;58935;54.498;18.544;2023-06-19T15:52:11;23.22;67.72
71206;SHT31;58935;54.498;18.544;2023-06-19T15:54:36;23.35;67.32